createdAt,value
2022-09-06T00:00:34.514Z,5.50
2022-09-06T00:03:06.884Z,4.80
2022-09-06T00:05:39.580Z,5.30
2022-09-06T00:08:11.739Z,5.00
2022-09-06T00:10:44.206Z,4.90
2022-09-06T00:13:16.515Z,5.90
2022-09-06T00:15:48.764Z,4.70
2022-09-06T00:18:20.998Z,5.30
2022-09-06T00:20:53.929Z,4.20
2022-09-06T00:23:26.199Z,4.30
2022-09-06T00:26:06.044Z,5.10
2022-09-06T00:28:38.291Z,5.20
2022-09-06T00:31:15.752Z,5.20
2022-09-06T00:33:48.187Z,4.80
2022-09-06T00:36:21.355Z,4.30
2022-09-06T00:38:53.686Z,4.40
2022-09-06T00:41:26.358Z,4.50
2022-09-06T00:43:58.532Z,4.70
2022-09-06T00:46:33.382Z,4.90
2022-09-06T00:49:08.604Z,5.60
2022-09-06T00:51:41.648Z,4.90
2022-09-06T00:54:13.793Z,4.40
2022-09-06T00:56:47.612Z,4.40
2022-09-06T00:59:20.468Z,4.30
2022-09-06T01:01:53.690Z,3.40
2022-09-06T01:04:27.719Z,3.60
2022-09-06T01:07:09.479Z,5.40
2022-09-06T01:09:56.150Z,3.60
2022-09-06T01:12:39.739Z,3.70
2022-09-06T01:15:25.956Z,3.40
2022-09-06T01:18:10.307Z,4.40
2022-09-06T01:20:53.467Z,5.40
2022-09-06T01:23:52.280Z,4.30
2022-09-06T01:26:58.521Z,5.00
2022-09-06T01:29:38.019Z,5.90
2022-09-06T01:32:18.496Z,4.50
2022-09-06T01:34:55.471Z,5.50
2022-09-06T01:37:28.164Z,3.90
2022-09-06T01:40:00.511Z,5.80
2022-09-06T01:42:36.056Z,3.70
2022-09-06T01:47:53.323Z,4.30
2022-09-06T01:50:46.354Z,5.00
2022-09-06T01:53:45.075Z,4.10
2022-09-06T01:56:32.011Z,4.80
2022-09-06T01:59:25.739Z,4.80
2022-09-06T02:02:07.072Z,4.20
2022-09-06T02:04:46.753Z,4.80
2022-09-06T02:07:23.058Z,4.10
2022-09-06T02:10:01.364Z,5.00
2022-09-06T02:12:36.979Z,4.50
2022-09-06T02:17:46.028Z,4.30
2022-09-06T02:20:21.984Z,6.20
2022-09-06T02:22:57.947Z,4.60
2022-09-06T02:25:35.459Z,4.90
2022-09-06T02:28:08.843Z,3.30
2022-09-06T02:30:44.644Z,4.20
2022-09-06T02:33:21.553Z,4.60
2022-09-06T02:35:56.686Z,4.30
2022-09-06T02:38:29.793Z,3.80
2022-09-06T02:41:02.155Z,3.00
2022-09-06T02:43:34.310Z,4.50
2022-09-06T02:46:06.588Z,4.30
2022-09-06T02:48:38.973Z,3.10
2022-09-06T02:51:12.067Z,4.00
2022-09-06T02:53:44.337Z,3.40
2022-09-06T02:56:16.510Z,3.70
2022-09-06T02:58:50.035Z,3.50
2022-09-06T03:01:22.304Z,4.10
2022-09-06T03:03:54.509Z,3.50
2022-09-06T03:06:26.705Z,4.50
2022-09-06T03:09:00.328Z,3.10
2022-09-06T03:11:32.707Z,3.50
2022-09-06T03:14:04.955Z,4.10
2022-09-06T03:16:38.800Z,2.30
2022-09-06T03:19:11.113Z,4.50
2022-09-06T03:21:43.295Z,3.40
2022-09-06T03:24:15.443Z,4.00
2022-09-06T03:26:47.735Z,4.50
2022-09-06T03:29:19.860Z,4.00
2022-09-06T03:31:52.176Z,4.80
2022-09-06T03:34:24.378Z,5.30
2022-09-06T03:36:56.675Z,4.10
2022-09-06T03:39:29.854Z,4.10
2022-09-06T03:42:02.059Z,3.40
2022-09-06T03:44:34.296Z,4.20
2022-09-06T03:47:07.321Z,4.50
2022-09-06T03:49:39.587Z,4.00
2022-09-06T03:52:11.776Z,5.40
2022-09-06T03:54:43.969Z,4.00
2022-09-06T03:57:16.159Z,3.90
2022-09-06T03:59:48.307Z,4.00
2022-09-06T04:02:20.542Z,3.80
2022-09-06T04:04:55.648Z,3.80
2022-09-06T04:07:27.867Z,3.90
2022-09-06T04:10:00.060Z,4.70
2022-09-06T04:12:32.327Z,3.70
2022-09-06T04:15:04.963Z,3.50
2022-09-06T04:17:37.244Z,4.60
2022-09-06T04:20:11.423Z,3.70
2022-09-06T04:22:43.614Z,4.20
2022-09-06T04:25:15.754Z,4.40
2022-09-06T04:27:47.896Z,3.50
2022-09-06T04:30:20.179Z,3.90
2022-09-06T04:32:52.410Z,5.90
2022-09-06T04:35:24.615Z,6.50
2022-09-06T04:37:56.764Z,4.90
2022-09-06T04:40:28.928Z,3.80
2022-09-06T04:43:01.095Z,4.80
2022-09-06T04:45:33.377Z,5.60
2022-09-06T04:48:05.950Z,6.60
2022-09-06T04:50:38.684Z,6.10
2022-09-06T04:53:12.002Z,7.70
2022-09-06T04:55:44.233Z,5.50
2022-09-06T04:58:16.395Z,5.90
2022-09-06T05:00:48.590Z,6.10
2022-09-06T05:03:21.020Z,3.80
2022-09-06T05:05:53.205Z,6.50
2022-09-06T05:08:25.776Z,5.70
2022-09-06T05:10:57.958Z,5.80
2022-09-06T05:13:30.251Z,4.90
2022-09-06T05:16:05.439Z,5.30
2022-09-06T05:18:38.072Z,6.70
2022-09-06T05:21:10.419Z,5.20
2022-09-06T05:23:43.005Z,5.40
2022-09-06T05:26:15.190Z,5.30
2022-09-06T05:28:47.496Z,6.60
2022-09-06T05:31:30.057Z,7.40
2022-09-06T05:34:03.055Z,6.60
2022-09-06T05:36:35.637Z,5.80
2022-09-06T05:39:07.853Z,5.30
2022-09-06T05:41:40.040Z,5.20
2022-09-06T05:44:12.325Z,6.10
2022-09-06T05:46:46.976Z,6.00
2022-09-06T05:49:19.234Z,9.00
2022-09-06T05:51:54.648Z,6.40
2022-09-06T05:54:26.914Z,5.50
2022-09-06T05:56:59.096Z,6.00
2022-09-06T05:59:31.310Z,5.90
2022-09-06T06:02:07.215Z,5.40
2022-09-06T06:04:39.820Z,6.30
2022-09-06T06:07:12.038Z,7.10
2022-09-06T06:09:44.799Z,5.80
2022-09-06T06:12:17.003Z,7.30
2022-09-06T06:14:49.228Z,6.20
2022-09-06T06:17:21.381Z,7.30
2022-09-06T06:19:53.644Z,6.80
2022-09-06T06:22:25.809Z,19.50
2022-09-06T06:24:58.552Z,26.40
2022-09-06T06:27:30.999Z,23.50
2022-09-06T06:30:03.180Z,9.90
2022-09-06T06:32:35.374Z,9.60
2022-09-06T06:35:09.726Z,7.20
2022-09-06T06:37:42.459Z,6.90
2022-09-06T06:40:15.088Z,7.00
2022-09-06T06:42:47.316Z,6.50
2022-09-06T06:45:22.245Z,7.60
2022-09-06T06:47:54.474Z,7.10
2022-09-06T06:50:26.746Z,6.80
2022-09-06T06:52:58.964Z,8.40
2022-09-06T06:55:31.223Z,7.00
2022-09-06T06:58:04.414Z,5.90
2022-09-06T07:00:38.744Z,7.10
2022-09-06T07:03:11.661Z,6.80
2022-09-06T07:08:38.416Z,5.30
2022-09-06T07:11:12.203Z,5.20
2022-09-06T07:13:44.563Z,5.30
2022-09-06T07:16:19.407Z,5.50
2022-09-06T07:18:53.992Z,6.30
2022-09-06T07:21:43.431Z,5.90
2022-09-06T07:24:16.147Z,5.70
2022-09-06T07:29:40.457Z,6.70
2022-09-06T07:32:12.760Z,5.70
2022-09-06T07:34:45.222Z,6.10
2022-09-06T07:37:17.363Z,5.90
2022-09-06T07:39:49.868Z,5.50
2022-09-06T07:42:22.086Z,7.00
2022-09-06T07:44:57.793Z,6.50
2022-09-06T07:53:16.678Z,5.50
2022-09-06T07:55:54.023Z,7.20
2022-09-06T07:58:26.295Z,4.60
2022-09-06T08:01:17.870Z,3.70
2022-09-06T08:03:50.616Z,5.20
2022-09-06T08:06:24.180Z,5.10
2022-09-06T08:11:35.731Z,6.40
2022-09-06T08:14:10.026Z,5.90
2022-09-06T08:16:42.554Z,5.90
2022-09-06T08:19:14.867Z,5.70
2022-09-06T08:21:47.062Z,4.70
2022-09-06T08:24:19.308Z,6.30
2022-09-06T08:26:51.565Z,6.20
2022-09-06T08:29:23.708Z,4.80
2022-09-06T08:31:55.951Z,6.00
2022-09-06T08:34:28.435Z,6.40
2022-09-06T08:37:00.684Z,6.80
2022-09-06T08:39:32.959Z,6.10
2022-09-06T08:42:07.123Z,6.50
2022-09-06T08:44:58.463Z,5.80
2022-09-06T08:47:31.167Z,7.00
2022-09-06T08:50:07.724Z,6.40
2022-09-06T08:55:55.456Z,5.80
2022-09-06T08:58:54.727Z,6.70
2022-09-06T09:01:31.433Z,6.10
2022-09-06T09:04:09.313Z,6.60
2022-09-06T09:06:41.648Z,7.40
2022-09-06T09:09:17.909Z,7.50
2022-09-06T09:11:53.069Z,5.90
2022-09-06T09:14:30.466Z,7.30
2022-09-06T09:17:07.883Z,6.60
2022-09-06T09:19:43.216Z,6.90
2022-09-06T09:24:48.483Z,6.50
2022-09-06T09:27:24.329Z,6.10
2022-09-06T09:32:59.556Z,7.20
2022-09-06T09:35:38.315Z,6.40
2022-09-06T09:38:14.066Z,5.60
2022-09-06T09:40:53.890Z,6.80
2022-09-06T09:43:29.733Z,5.40
2022-09-06T09:46:14.852Z,6.00
2022-09-06T09:49:02.181Z,6.00
2022-09-06T09:51:35.627Z,4.30
2022-09-06T09:54:09.774Z,4.50
2022-09-06T09:56:46.923Z,4.60
2022-09-06T09:59:26.009Z,5.10
2022-09-06T10:02:01.643Z,5.20
2022-09-06T10:04:44.753Z,5.50
2022-09-06T10:07:20.540Z,5.80
2022-09-06T10:09:59.466Z,4.10
2022-09-06T10:12:38.992Z,4.40
2022-09-06T10:15:14.174Z,3.40
2022-09-06T10:20:33.480Z,5.20
2022-09-06T10:23:13.718Z,5.20
2022-09-06T10:25:49.765Z,5.20
2022-09-06T10:28:41.945Z,6.40
2022-09-06T10:31:50.146Z,5.20
2022-09-06T10:34:46.097Z,6.40
2022-09-06T10:40:04.389Z,5.30
2022-09-06T10:42:44.222Z,4.60
2022-09-06T10:45:28.628Z,5.70
2022-09-06T10:48:04.886Z,5.00
2022-09-06T10:50:47.300Z,5.70
2022-09-06T10:53:32.336Z,5.30
2022-09-06T10:56:10.136Z,6.10
2022-09-06T11:01:46.045Z,5.60
2022-09-06T11:04:26.777Z,6.60
2022-09-06T11:07:04.917Z,5.80
2022-09-06T11:09:42.769Z,6.40
2022-09-06T11:12:19.878Z,6.70
2022-09-06T11:14:52.970Z,6.20
2022-09-06T11:17:35.305Z,7.10
2022-09-06T11:20:12.775Z,6.00
2022-09-06T11:23:20.362Z,6.60
2022-09-06T11:26:24.899Z,5.00
2022-09-06T11:28:59.396Z,6.70
2022-09-06T11:34:29.251Z,6.50
2022-09-06T11:37:02.943Z,5.20
2022-09-06T11:43:13.469Z,6.60
2022-09-06T11:45:48.594Z,6.50
2022-09-06T11:48:45.010Z,5.40
2022-09-06T11:51:35.308Z,5.60
2022-09-06T11:54:35.932Z,6.40
2022-09-06T11:57:16.604Z,6.80
2022-09-06T12:00:00.589Z,6.00
2022-09-06T12:02:38.355Z,7.00
2022-09-06T12:05:26.581Z,7.30
2022-09-06T12:08:32.025Z,9.20
2022-09-06T12:11:23.063Z,6.40
2022-09-06T12:14:03.355Z,6.80
2022-09-06T12:17:09.999Z,7.50
2022-09-06T12:19:49.330Z,8.10
2022-09-06T12:23:06.999Z,7.20
2022-09-06T12:25:58.614Z,8.40
2022-09-06T12:28:48.518Z,6.30
2022-09-06T12:31:40.679Z,7.20
2022-09-06T12:34:15.915Z,9.10
2022-09-06T12:36:54.996Z,6.80
2022-09-06T12:39:27.513Z,7.60
2022-09-06T12:42:02.040Z,8.30
2022-09-06T12:44:37.720Z,7.30
2022-09-06T12:47:17.755Z,7.00
2022-09-06T12:50:05.576Z,6.60
2022-09-06T12:52:47.399Z,7.50
2022-09-06T12:55:24.347Z,7.10
2022-09-06T12:57:58.175Z,7.80
2022-09-06T13:00:36.236Z,5.60
2022-09-06T13:03:24.586Z,9.10
2022-09-06T13:05:59.494Z,6.60
2022-09-06T13:08:37.558Z,7.00
2022-09-06T13:11:14.576Z,7.00
2022-09-06T13:13:52.379Z,8.50
2022-09-06T13:16:26.807Z,7.30
2022-09-06T13:19:14.544Z,7.60
2022-09-06T13:21:48.236Z,8.00
2022-09-06T13:24:25.489Z,6.20
2022-09-06T13:26:57.927Z,7.30
2022-09-06T13:29:33.343Z,7.20
2022-09-06T13:32:09.736Z,6.70
2022-09-06T13:34:57.055Z,7.50
2022-09-06T13:37:32.700Z,6.80
2022-09-06T13:40:25.080Z,6.80
2022-09-06T13:43:03.908Z,6.90
2022-09-06T13:45:36.415Z,6.30
2022-09-06T13:48:28.384Z,6.70
2022-09-06T13:51:00.966Z,6.70
2022-09-06T13:53:33.241Z,7.60
2022-09-06T13:56:08.871Z,6.00
2022-09-06T13:58:41.189Z,6.00
2022-09-06T14:01:14.702Z,6.60
2022-09-06T14:03:47.376Z,5.40
2022-09-06T14:06:19.529Z,6.60
2022-09-06T14:09:08.255Z,5.20
2022-09-06T14:11:42.881Z,6.30
2022-09-06T14:14:18.964Z,6.50
2022-09-06T14:16:51.214Z,6.80
2022-09-06T14:19:23.474Z,7.90
2022-09-06T14:21:55.892Z,6.70
2022-09-06T14:24:28.253Z,6.60
2022-09-06T14:27:00.509Z,6.30
2022-09-06T14:29:32.956Z,4.70
2022-09-06T14:32:05.726Z,6.70
2022-09-06T14:34:37.932Z,5.30
2022-09-06T14:37:13.397Z,6.40
2022-09-06T14:39:46.130Z,6.60
2022-09-06T14:42:18.401Z,5.90
2022-09-06T14:44:50.676Z,7.00
2022-09-06T14:47:23.253Z,4.70
2022-09-06T14:49:55.507Z,7.30
2022-09-06T14:52:27.853Z,6.90
2022-09-06T14:55:00.127Z,5.40
2022-09-06T14:57:32.714Z,6.10
2022-09-06T15:00:08.385Z,6.70
2022-09-06T15:02:41.106Z,5.50
2022-09-06T15:05:13.667Z,5.20
2022-09-06T15:07:46.613Z,5.70
2022-09-06T15:10:19.523Z,6.60
2022-09-06T15:12:51.896Z,6.50
2022-09-06T15:15:24.344Z,6.20
2022-09-06T15:17:57.150Z,6.00
2022-09-06T15:20:29.452Z,6.40
2022-09-06T15:23:24.372Z,6.80
2022-09-06T15:25:54.738Z,5.30
2022-09-06T15:28:27.051Z,5.80
2022-09-06T15:30:59.733Z,5.60
2022-09-06T15:33:34.009Z,5.40
2022-09-06T15:36:08.727Z,6.70
2022-09-06T15:38:44.182Z,5.30
2022-09-06T15:41:18.475Z,5.40
2022-09-06T15:43:52.028Z,5.80
2022-09-06T15:46:44.783Z,6.00
2022-09-06T15:49:18.911Z,4.80
2022-09-06T15:51:51.394Z,5.80
2022-09-06T15:54:45.355Z,5.90
2022-09-06T15:57:18.645Z,5.50
2022-09-06T15:59:50.917Z,5.20
2022-09-06T16:02:23.340Z,5.00
2022-09-06T16:04:55.929Z,5.00
2022-09-06T16:07:28.185Z,5.40
2022-09-06T16:10:01.293Z,4.70
2022-09-06T16:12:33.689Z,5.20
2022-09-06T16:15:07.135Z,6.40
2022-09-06T16:17:39.416Z,5.20
2022-09-06T16:20:12.555Z,5.00
2022-09-06T16:22:44.849Z,5.50
2022-09-06T16:25:17.288Z,5.70
2022-09-06T16:27:49.664Z,6.10
2022-09-06T16:30:22.200Z,4.90
2022-09-06T16:32:54.420Z,6.70
2022-09-06T16:35:26.680Z,5.90
2022-09-06T16:38:01.337Z,5.10
2022-09-06T16:40:33.840Z,5.90
2022-09-06T16:43:06.240Z,5.20
2022-09-06T16:45:38.604Z,7.00
2022-09-06T16:48:11.690Z,7.10
2022-09-06T16:50:44.200Z,6.70
2022-09-06T16:53:21.483Z,8.00
2022-09-06T16:55:54.463Z,6.60
2022-09-06T16:58:26.745Z,6.70
2022-09-06T17:00:59.739Z,7.20
2022-09-06T17:03:32.085Z,8.20
2022-09-06T17:06:05.071Z,9.00
2022-09-06T17:08:38.664Z,9.50
2022-09-06T17:11:12.672Z,9.90
2022-09-06T17:13:46.594Z,5.90
2022-09-06T17:16:36.859Z,5.40
2022-09-06T17:19:10.454Z,7.50
2022-09-06T17:21:43.860Z,6.50
2022-09-06T17:24:16.745Z,5.20
2022-09-06T17:26:49.145Z,4.70
2022-09-06T17:29:21.735Z,5.90
2022-09-06T17:31:54.022Z,6.10
2022-09-06T17:34:26.423Z,6.20
2022-09-06T17:36:58.672Z,5.20
2022-09-06T17:39:31.115Z,7.30
2022-09-06T17:42:03.476Z,5.80
2022-09-06T17:44:35.725Z,7.60
2022-09-06T17:47:12.992Z,4.20
2022-09-06T17:49:47.460Z,5.60
2022-09-06T17:52:19.707Z,5.30
2022-09-06T17:54:52.239Z,8.40
2022-09-06T17:57:24.616Z,6.50
2022-09-06T17:59:56.952Z,6.30
2022-09-06T18:02:29.505Z,6.70
2022-09-06T18:05:01.842Z,7.20
2022-09-06T18:07:34.321Z,6.00
2022-09-06T18:10:08.390Z,6.90
2022-09-06T18:12:41.119Z,8.10
2022-09-06T18:15:13.847Z,6.90
2022-09-06T18:17:46.217Z,7.20
2022-09-06T18:20:18.687Z,6.60
2022-09-06T18:22:50.944Z,7.40
2022-09-06T18:25:23.180Z,5.40
2022-09-06T18:27:55.444Z,7.50
2022-09-06T18:30:27.882Z,7.90
2022-09-06T18:33:00.123Z,6.50
2022-09-06T18:35:32.495Z,8.30
2022-09-06T18:38:04.769Z,7.40
2022-09-06T18:40:37.036Z,7.60
2022-09-06T18:43:09.867Z,7.20
2022-09-06T18:45:42.893Z,8.00
2022-09-06T18:48:16.085Z,7.30
2022-09-06T18:50:48.623Z,7.10
2022-09-06T18:53:21.088Z,8.00
2022-09-06T18:55:55.105Z,6.70
2022-09-06T18:58:27.588Z,8.80
2022-09-06T19:01:07.919Z,7.90
2022-09-06T19:03:41.998Z,7.70
2022-09-06T19:06:15.747Z,8.00
2022-09-06T19:08:48.893Z,9.20
2022-09-06T19:11:22.915Z,9.40
2022-09-06T19:13:57.664Z,9.60
2022-09-06T19:16:31.750Z,10.60
2022-09-06T19:19:07.594Z,8.80
2022-09-06T19:21:42.246Z,10.10
2022-09-06T19:24:16.342Z,11.20
2022-09-06T19:26:48.587Z,10.10
2022-09-06T19:29:21.287Z,10.90
2022-09-06T19:31:54.586Z,9.30
2022-09-06T19:34:27.099Z,10.30
2022-09-06T19:36:59.456Z,9.10
2022-09-06T19:39:36.863Z,10.30
2022-09-06T19:42:10.076Z,10.10
2022-09-06T19:44:42.321Z,8.30
2022-09-06T19:47:14.642Z,7.80
2022-09-06T19:49:47.051Z,8.40
2022-09-06T19:52:19.390Z,9.50
2022-09-06T19:54:51.652Z,10.80
2022-09-06T19:57:23.855Z,9.40
2022-09-06T19:59:56.295Z,9.50
2022-09-06T20:02:28.609Z,11.20
2022-09-06T20:05:00.991Z,9.30
2022-09-06T20:07:33.340Z,10.10
2022-09-06T20:10:06.596Z,8.80
2022-09-06T20:12:39.813Z,9.30
2022-09-06T20:15:14.002Z,10.10
2022-09-06T20:17:46.282Z,9.10
2022-09-06T20:20:18.883Z,8.00
2022-09-06T20:22:51.180Z,10.00
2022-09-06T20:25:23.440Z,9.10
2022-09-06T20:27:55.773Z,9.20
2022-09-06T20:30:30.317Z,10.50
2022-09-06T20:33:02.634Z,10.80
2022-09-06T20:35:34.918Z,9.20
2022-09-06T20:38:07.679Z,8.20
2022-09-06T20:40:39.979Z,7.10
2022-09-06T20:43:12.236Z,7.10
2022-09-06T20:45:46.998Z,6.60
2022-09-06T20:48:19.377Z,6.10
2022-09-06T20:50:58.985Z,6.30
2022-09-06T20:53:31.995Z,5.90
2022-09-06T20:56:06.465Z,7.00
2022-09-06T20:58:39.126Z,6.40
2022-09-06T21:01:15.252Z,5.70
2022-09-06T21:03:47.619Z,5.70
2022-09-06T21:06:20.703Z,4.10
2022-09-06T21:08:53.252Z,4.50
2022-09-06T21:11:25.862Z,4.70
2022-09-06T21:13:59.180Z,4.90
2022-09-06T21:16:32.042Z,5.30
2022-09-06T21:19:06.459Z,4.70
2022-09-06T21:21:39.366Z,4.80
2022-09-06T21:24:12.748Z,4.80
2022-09-06T21:26:46.506Z,5.40
2022-09-06T21:29:18.825Z,5.20
2022-09-06T21:31:51.241Z,4.40
2022-09-06T21:34:23.632Z,5.10
2022-09-06T21:36:55.975Z,5.70
2022-09-06T21:39:28.308Z,4.90
2022-09-06T21:42:00.598Z,4.90
2022-09-06T21:44:32.969Z,5.30
2022-09-06T21:47:05.808Z,5.10
2022-09-06T21:49:38.640Z,5.20
2022-09-06T21:52:10.981Z,4.40
2022-09-06T21:54:43.211Z,4.90
2022-09-06T21:57:15.411Z,5.60
2022-09-06T21:59:47.691Z,4.30
2022-09-06T22:02:19.974Z,4.00
2022-09-06T22:04:52.385Z,4.10
2022-09-06T22:07:24.574Z,3.40
2022-09-06T22:09:56.803Z,3.50
2022-09-06T22:12:29.026Z,4.50
2022-09-06T22:15:01.280Z,3.10
2022-09-06T22:17:33.598Z,3.30
2022-09-06T22:20:07.176Z,3.00
2022-09-06T22:22:39.475Z,2.90
2022-09-06T22:25:12.668Z,2.90
2022-09-06T22:27:44.933Z,2.90
2022-09-06T22:30:17.409Z,2.00
2022-09-06T22:32:49.757Z,2.60
2022-09-06T22:35:22.890Z,3.40
2022-09-06T22:37:55.234Z,2.60
2022-09-06T22:40:27.552Z,3.70
2022-09-06T22:43:00.010Z,3.10
2022-09-06T22:45:32.887Z,2.80
2022-09-06T22:48:05.558Z,3.70
2022-09-06T22:50:37.935Z,2.50
2022-09-06T22:53:10.632Z,3.30
2022-09-06T22:55:47.390Z,2.90
2022-09-06T22:58:19.726Z,3.60
2022-09-06T23:00:52.119Z,3.00
2022-09-06T23:03:24.935Z,3.90
2022-09-06T23:06:02.715Z,3.40
2022-09-06T23:08:35.902Z,2.50
2022-09-06T23:11:10.257Z,2.90
2022-09-06T23:13:44.325Z,2.50
2022-09-06T23:16:18.878Z,3.20
2022-09-06T23:18:51.491Z,2.00
2022-09-06T23:21:26.157Z,4.10
2022-09-06T23:23:59.113Z,3.30
2022-09-06T23:26:33.553Z,2.00
2022-09-06T23:29:05.810Z,3.20
2022-09-06T23:31:38.204Z,2.90
2022-09-06T23:34:10.550Z,3.40
2022-09-06T23:36:43.057Z,2.80
2022-09-06T23:39:15.327Z,3.30
2022-09-06T23:41:47.640Z,3.60
2022-09-06T23:44:19.869Z,3.50
2022-09-06T23:46:52.280Z,2.50
2022-09-06T23:49:24.588Z,2.60
2022-09-06T23:51:56.853Z,2.30
2022-09-06T23:54:29.207Z,3.30
2022-09-06T23:57:01.540Z,2.60
2022-09-06T23:59:35.026Z,3.30
